Las Vegas, Nevada (DRI) Weather observations

Data are for observation ending at time listed.
 Day   Time    Ave.   Ave.  Ave.  Vector   Max.   Stn.    Total    Solar   Ave.  
  of    of     Air    Rel.  Wind   Wind    Wind   Baro.  Precip.   Rad.    Soil  
Year   Day     Temp.  Hum.  Speed  Dir.    Gust   Pres.                    Temp. 
2015   (PST)    F      %     mph   deg.    mph     mb.     in.     W/m2     F   
------------------------------------------------------------------------------
  88   15:50   90.6     8    1.8    45      4.7   943.1    0.00     482    81.1
  88   16:00   90.4     8    1.9   150      4.9   943.1    0.00     451    81.3
  88   16:10   91.1     8    0.8   204      4.4   942.9    0.00     342    81.5
  88   16:20   90.0     8    1.4    48      3.7   942.8    0.00     371    81.8
  88   16:30   90.8     8    1.8   177      5.7   942.7    0.00     360    81.9
  88   16:40   90.4     8    1.9   185      5.2   942.6    0.00     309    82.1
  88   16:50   90.1     8    1.2    50      4.5   942.6    0.00     259    82.3
  88   17:00   90.0     8    1.0    30      3.5   942.6    0.00     209    82.5
  88   17:10   89.3     8    0.9    42      4.5   942.6    0.00     158    82.7
  88   17:20   89.5     9    0.5     2      2.3   942.6    0.00     134    82.9
  88   17:30   88.8     9    0.4     0      1.2   942.6    0.00      70    83.1
  88   17:40   87.0     9    0.6    31      3.0   942.7    0.00      25    83.2
  88   17:50   86.3     9    0.2    50      2.3   942.7    0.00      16    83.4
  88   18:00   85.6     9    0.5    53      3.1   942.7    0.00       6    83.4
  88   18:10   84.8    10    0.1    41      0.9   942.7    0.00       3    83.5
  88   18:20   84.0    11    0.0   274      0.5   942.7    0.00       3    83.6
  88   18:30   83.2    11    0.0     0      0.0   942.8    0.00       3    83.7
  88   18:40   82.6    11    0.0    46      1.2   942.8    0.00       1    83.8
  88   18:50   82.2    11    0.0    42      1.0   942.9    0.00       1    83.8
  88   19:00   82.0    11    0.0     0      0.0   943.1    0.00       2    83.8
  88   19:10   81.2    12    0.0     0      0.0   943.2    0.00       1    83.8
  88   19:20   80.2    13    0.0     0      0.0   943.4    0.00       1    83.7
  88   19:30   79.4    13    0.0     0      0.0   943.5    0.00       0    83.7
  88   19:40   78.8    13    0.0     0      0.0   943.5    0.00       0    83.7
  88   19:50   78.3    13    0.0     0      0.0   943.6    0.00       0    83.6
  88   20:00   80.0    12    0.9   175      4.7   943.6    0.00       0    83.6
  88   20:10   79.0    14    0.0     0      0.0   943.7    0.00       0    83.6
  88   20:20   77.7    16    0.2   188      2.0   943.7    0.00       0    83.5
  88   20:30   77.0    15    0.2   183      0.9   943.8    0.00       0    83.4
  88   20:40   76.7    15    0.1   187      1.9   943.8    0.00       0    83.3
  88   20:50   77.5    14    0.2   183      1.2   943.8    0.00       0    83.2
  88   21:00   77.8    14    0.6   169      1.8   944.0    0.00       0    83.1
  88   21:10   77.8    14    0.2   233      1.6   944.0    0.00       0    83.0
  88   21:20   77.8    15    0.2   314      1.3   944.1    0.00       0    83.0
  88   21:30   76.8    18    1.4    14      3.5   944.1    0.00       0    82.8
  88   21:40   75.6    19    1.0     6      3.4   944.3    0.00       0    82.8
  88   21:50   75.5    18    0.7   206      2.8   944.3    0.00       0    82.7
  88   22:00   75.4    18    0.2   188      1.8   944.3    0.00       0    82.6
  88   22:10   75.0    19    0.4   166      1.8   944.3    0.00       0    82.5
  88   22:20   73.6    22    0.2   163      2.6   944.3    0.00       0    82.4
  88   22:30   72.9    22    0.5   176      2.2   944.3    0.00       0    82.3
  88   22:40   72.8    20    0.4   159      1.4   944.3    0.00       0    82.1
  88   22:50   73.5    20    0.5   212      2.9   944.3    0.00       0    82.0
  88   23:00   73.6    20    0.8   159      2.0   944.3    0.00       0    81.9
  88   23:10   72.4    22    0.3   172      1.8   944.3    0.00       0    81.8
  88   23:20   72.0    21    0.5   185      1.7   944.3    0.00       0    81.7
  88   23:30   72.4    20    0.2   171      1.4   944.4    0.00       0    81.6
  88   23:40   72.2    20    0.0   170      0.5   944.4    0.00       0    81.5
  88   23:50   72.4    20    0.1   354      1.7   944.4    0.00       0    81.4
  89    0:00   72.9    19    1.2    16      2.8   944.4    0.00       0    81.3
  89    0:10   72.1    19    0.2    24      2.3   944.4    0.00       0    81.2
  89    0:20   71.3    21    0.1    26      1.0   944.4    0.00       0    81.1
  89    0:30   69.8    23    0.0    15      0.5   944.4    0.00       0    80.9
  89    0:40   68.8    24    0.3   160      1.4   944.4    0.00       0    80.8
  89    0:50   68.4    25    0.5   172      2.5   944.4    0.00       0    80.7
  89    1:00   69.0    24    0.6   184      2.5   944.4    0.00       0    80.6
  89    1:10   68.9    24    0.0     0      0.0   944.3    0.00       0    80.5
  89    1:20   68.7    24    0.0    23      1.0   944.3    0.00       0    80.4
  89    1:30   67.8    26    0.6   162      1.8   944.3    0.00       0    80.3
  89    1:40   67.1    26    0.2   169      1.3   944.3    0.00       0    80.2
  89    1:50   67.2    25    0.1    38      1.6   944.3    0.00       0    80.0
  89    2:00   67.4    25    0.0    36      1.4   944.3    0.00       0    80.0
  89    2:10   66.7    27    0.7   173      3.1   944.3    0.00       0    79.8
  89    2:20   66.7    26    0.5   172      1.9   944.3    0.00       0    79.7
  89    2:30   66.5    26    1.3   173      2.9   944.4    0.00       0    79.6
  89    2:40   66.7    25    0.2   173      1.8   944.4    0.00       0    79.5
  89    2:50   66.5    26    0.0     0      0.0   944.5    0.00       0    79.4
  89    3:00   66.3    27    0.0     0      0.0   944.5    0.00       0    79.3
  89    3:10   65.5    28    0.0     0      0.0   944.6    0.00       0    79.2
  89    3:20   65.8    28    0.0     0      0.0   944.6    0.00       0    79.1
  89    3:30   65.8    28    0.4   165      2.2   944.6    0.00       0    79.0
  89    3:40   65.5    26    0.0    70      0.9   944.6    0.00       0    78.9
  89    3:50   65.5    27    0.0    63      0.6   944.8    0.00       0    78.7
  89    4:00   64.2    29    0.0     0      0.0   944.8    0.00       0    78.6
  89    4:10   63.5    30    0.0     0      0.0   944.9    0.00       0    78.5
  89    4:20   63.7    29    0.0     0      0.0   944.9    0.00       0    78.4
  89    4:30   64.2    29    0.0    63      0.1   944.9    0.00       0    78.3
  89    4:40   64.0    29    0.0     0      0.0   945.1    0.00       0    78.2
  89    4:50   64.0    29    0.0     0      0.0   945.2    0.00       0    78.1
  89    5:00   64.3    28    0.0     0      0.0   945.2    0.00       0    78.0
  89    5:10   63.8    29    0.0     0      0.0   945.3    0.00       0    77.9
  89    5:20   63.1    30    0.0     0      0.0   945.3    0.00       0    77.8
  89    5:30   62.6    31    0.0     0      0.0   945.5    0.00       3    77.6
  89    5:40   62.5    31    0.0     0      0.0   945.6    0.00       6    77.5
  89    5:50   63.1    29    0.0     0      0.0   945.8    0.00      11    77.5
  89    6:00   63.2    29    0.0     0      0.0   945.8    0.00      16    77.3
  89    6:10   63.7    28    0.0    43      0.6   945.9    0.00      20    77.2
  89    6:20   64.3    28    0.0    20      0.9   946.0    0.00      25    77.1
  89    6:30   64.6    29    0.0     0      0.0   946.1    0.00      25    77.0
  89    6:40   64.7    29    0.0     0      0.0   946.2    0.00      28    76.9
  89    6:50   65.1    30    0.0    22      0.5   946.3    0.00      32    76.8
  89    7:00   66.3    29    0.0     0      0.0   946.3    0.00      32    76.7
  89    7:10   67.2    27    0.0   103      0.2   946.4    0.00      32    76.6
  89    7:20   68.1    25    0.0   105      0.1   946.5    0.00      35    76.5
  89    7:30   68.6    24    0.0    53      0.8   946.6    0.00      39    76.4
  89    7:40   69.3    22    0.1    34      1.2   946.7    0.00      39    76.3
  89    7:50   70.2    22    0.5    42      3.1   946.8    0.00      39    76.2
  89    8:00   70.6    20    0.0    59      1.1   946.8    0.00      44    76.1
  89    8:10   70.9    18    0.2    45      1.5   946.8    0.00     110    76.0
  89    8:20   71.9    17    0.7    41      3.1   946.8    0.00     328    75.9
  89    8:30   72.9    16    0.7    48      3.1   946.9    0.00     525    75.8
  89    8:40   73.8    15    0.5   141      2.4   947.0    0.00     590    75.7
  89    8:50   74.7    15    0.9    49      3.2   947.1    0.00     641    75.6
  89    9:00   75.2    15    1.2    42      3.4   947.1    0.00     593    75.6
  89    9:10   76.0    15    0.6    53      2.9   947.1    0.00     718    75.5
  89    9:20   77.4    14    0.4    52      2.5   947.0    0.00     745    75.4
  89    9:30   77.6    13    1.6    55      3.4   947.0    0.00     773    75.4
  89    9:40   78.0    12    1.6    51      4.6   947.0    0.00     799    75.3
  89    9:50   78.8    12    0.8    47      3.4   947.0    0.00     823    75.2
  89   10:00   79.4    12    1.1    49      4.4   946.9    0.00     846    75.1
  89   10:10   80.1    12    1.1   174      5.0   946.8    0.00     869    75.1
  89   10:20   80.9    12    1.3    57      4.5   946.7    0.00     887    75.0
  89   10:30   81.0    12    1.3    27      3.4   946.6    0.00     905    74.9
  89   10:40   81.5    11    1.5    37      5.0   946.5    0.00     922    74.9
  89   10:50   82.7    11    1.4   179      4.9   946.4    0.00     936    74.9
  89   11:00   83.0    11    1.5   173      4.2   946.3    0.00     948    74.9
  89   11:10   84.0    11    1.1   154      4.2   946.2    0.00     959    75.0
  89   11:20   84.4    11    1.5    73      5.0   946.0    0.00     968    75.0
  89   11:30   85.5    10    0.6   175      3.1   945.8    0.00     976    75.1
  89   11:40   86.1    10    1.2   206      5.3   945.7    0.00     980    75.2
  89   11:50   85.8    10    1.6   191      3.5   945.5    0.00     980    75.4
  89   12:00   86.4    10    1.1    36      4.7   945.4    0.00     980    75.5
  89   12:10   86.6    10    2.0   194      5.5   945.2    0.00     978    75.7
  89   12:20   86.8    10    2.2   170      5.9   945.0    0.00     972    75.9
  89   12:30   87.4    10    2.6   191      6.2   944.8    0.00     967    76.1
  89   12:40   88.2    10    1.6   141      5.6   944.6    0.00     962    76.3
  89   12:50   89.0     9    2.4   179      6.9   944.4    0.00     951    76.6
  89   13:00   89.8     9    2.0   146      7.1   944.2    0.00     939    76.8
  89   13:10   89.9     9    3.4   190      6.8   944.0    0.00     926    77.1
  89   13:20   89.8     9    2.3   201      6.6   943.7    0.00     911    77.3
  89   13:30   90.5     9    2.9   184      7.9   943.5    0.00     895    77.6
  89   13:40   90.8     9    1.8   176      5.3   943.4    0.00     874    77.9
  89   13:50   90.5     9    1.7   202      7.0   943.1    0.00     855    78.2
  89   14:00   91.2     9    2.6   185      6.9   942.9    0.00     833    78.5
  89   14:10   90.6     9    1.9    34      4.5   942.7    0.00     807    78.7
  89   14:20   91.1     9    2.5   130      7.8   942.5    0.00     782    79.0
  89   14:30   91.4     9    2.0   184      6.1   942.4    0.00     754    79.3
  89   14:40   90.8     9    3.1   187      8.3   942.2    0.00     725    79.7
  89   14:50   90.3     9    4.3   184      8.3   942.0    0.00     694    80.0
  89   15:00   89.9     9    3.8   183     10.8   941.9    0.00     664    80.3
  89   15:10   90.1     9    3.9   181      8.8   941.7    0.00     631    80.5
  89   15:20   91.0     9    2.3   155     10.5   941.6    0.00     595    80.8
  89   15:30   91.4     9    2.0    30      5.9   941.5    0.00     559    81.1
  89   15:40   91.4     9    2.4    54      9.1   941.4    0.00     522    81.4

Return to Las Vegas, Nevada graphs page.


Western Regional Climate Center,wrcc@dri.edu